FGA301 FAOR-FOOL
Flight info
| Callsign | FGA301 |
|---|---|
| Flight time | 5h 39m |
| Altitude | 24000 |
| Route | VASUR3A VASUR UZ21 ITROL Q25 RUDAS/N0471F340 UT941 ANIPO/N0465F360 UT941 VNA UR526 PILVI PILVI1L |
| Aircraft | A320/M-SDE3FGHIRWY/LB1 |
Departure
| Time | 2026-04-26 02:59 |
|---|---|
| Airport | O.R. Tambo International Airport (FAOR) |
Arrival
| Time | 2026-04-26 08:39 |
|---|---|
| Airport | Libreville Leon M'ba International Airport (FOOL) |
| Time | Latitude | Longitude | Altitude | Speed | Heading |
|---|---|---|---|---|---|
| 2026-04-26 02:26 | -26.13596 | 28.23259 | 5547 ft | 0 kts | 276° |
| 2026-04-26 02:47 | -26.13598 | 28.23280 | 5551 ft | 4 kts | 263° |
| 2026-04-26 02:47 | -26.13591 | 28.23309 | 5549 ft | 4 kts | 242° |
| 2026-04-26 02:48 | -26.13576 | 28.23334 | 5551 ft | 4 kts | 226° |
| 2026-04-26 02:48 | -26.13555 | 28.23353 | 5549 ft | 4 kts | 207° |
| 2026-04-26 02:48 | -26.13537 | 28.23360 | 5550 ft | 0 kts | 186° |
| 2026-04-26 02:51 | -26.13540 | 28.23360 | 5547 ft | 1 kts | 186° |
| 2026-04-26 02:51 | -26.13551 | 28.23359 | 5549 ft | 2 kts | 186° |
| 2026-04-26 02:51 | -26.13564 | 28.23357 | 5548 ft | 2 kts | 186° |
| 2026-04-26 02:52 | -26.13587 | 28.23354 | 5548 ft | 5 kts | 186° |
| 2026-04-26 02:52 | -26.13627 | 28.23350 | 5549 ft | 6 kts | 186° |
| 2026-04-26 02:52 | -26.13672 | 28.23345 | 5549 ft | 7 kts | 186° |
| 2026-04-26 02:52 | -26.13723 | 28.23338 | 5548 ft | 8 kts | 186° |
| 2026-04-26 02:53 | -26.13777 | 28.23332 | 5547 ft | 8 kts | 186° |
| 2026-04-26 02:53 | -26.13835 | 28.23325 | 5551 ft | 9 kts | 186° |
| 2026-04-26 02:53 | -26.13894 | 28.23309 | 5550 ft | 9 kts | 196° |
| 2026-04-26 02:53 | -26.13943 | 28.23293 | 5551 ft | 6 kts | 196° |
| 2026-04-26 02:54 | -26.13981 | 28.23281 | 5552 ft | 6 kts | 196° |
| 2026-04-26 02:54 | -26.14030 | 28.23263 | 5551 ft | 9 kts | 198° |
| 2026-04-26 02:54 | -26.14094 | 28.23241 | 5551 ft | 11 kts | 196° |
| 2026-04-26 02:54 | -26.14173 | 28.23217 | 5555 ft | 13 kts | 195° |
| 2026-04-26 02:55 | -26.14260 | 28.23202 | 5556 ft | 12 kts | 171° |
| 2026-04-26 02:55 | -26.14320 | 28.23219 | 5559 ft | 6 kts | 166° |
| 2026-04-26 02:55 | -26.14349 | 28.23227 | 5560 ft | 3 kts | 166° |
| 2026-04-26 02:55 | -26.14384 | 28.23236 | 5560 ft | 7 kts | 166° |
| 2026-04-26 02:56 | -26.14435 | 28.23250 | 5559 ft | 9 kts | 166° |
| 2026-04-26 02:56 | -26.14489 | 28.23265 | 5562 ft | 6 kts | 166° |
| 2026-04-26 02:56 | -26.14524 | 28.23274 | 5563 ft | 4 kts | 167° |
| 2026-04-26 02:56 | -26.14564 | 28.23284 | 5564 ft | 8 kts | 167° |
| 2026-04-26 02:57 | -26.14600 | 28.23321 | 5566 ft | 6 kts | 111° |
| 2026-04-26 02:57 | -26.14610 | 28.23363 | 5567 ft | 5 kts | 103° |
| 2026-04-26 02:57 | -26.14619 | 28.23403 | 5566 ft | 5 kts | 103° |
| 2026-04-26 02:57 | -26.14614 | 28.23444 | 5567 ft | 6 kts | 46° |
| 2026-04-26 02:58 | -26.14590 | 28.23452 | 5567 ft | 0 kts | 13° |
| 2026-04-26 02:58 | -26.14586 | 28.23453 | 5565 ft | 5 kts | 13° |
| 2026-04-26 02:58 | -26.14365 | 28.23519 | 5566 ft | 70 kts | 17° |
| 2026-04-26 02:59 | -26.13683 | 28.23731 | 5559 ft | 131 kts | 15° |
| 2026-04-26 02:59 | -26.12638 | 28.24052 | 5543 ft | 178 kts | 15° |
| 2026-04-26 02:59 | -26.11357 | 28.24457 | 5845 ft | 193 kts | 16° |
| 2026-04-26 02:59 | -26.10093 | 28.24911 | 6660 ft | 192 kts | 16° |
| 2026-04-26 03:00 | -26.08797 | 28.25339 | 7228 ft | 198 kts | 14° |
| 2026-04-26 03:00 | -26.07432 | 28.25694 | 7698 ft | 205 kts | 9° |
| 2026-04-26 03:00 | -26.05972 | 28.25856 | 7903 ft | 220 kts | 351° |
| 2026-04-26 03:00 | -26.04618 | 28.25080 | 8152 ft | 230 kts | 310° |
| 2026-04-26 03:01 | -26.03801 | 28.23464 | 8280 ft | 252 kts | 292° |
| 2026-04-26 03:01 | -26.03163 | 28.21554 | 8520 ft | 274 kts | 288° |
| 2026-04-26 03:01 | -26.02551 | 28.19506 | 9061 ft | 282 kts | 288° |
| 2026-04-26 03:01 | -26.01660 | 28.17565 | 9704 ft | 287 kts | 312° |
| 2026-04-26 03:02 | -26.00123 | 28.16136 | 10359 ft | 290 kts | 324° |
| 2026-04-26 03:02 | -25.98348 | 28.14921 | 10592 ft | 311 kts | 329° |
| 2026-04-26 03:02 | -25.96373 | 28.13756 | 10714 ft | 332 kts | 332° |
| 2026-04-26 03:02 | -25.94251 | 28.12562 | 10833 ft | 351 kts | 332° |
| 2026-04-26 03:03 | -25.92017 | 28.11292 | 10953 ft | 370 kts | 331° |
| 2026-04-26 03:03 | -25.89712 | 28.09942 | 11301 ft | 379 kts | 330° |
| 2026-04-26 03:03 | -25.87381 | 28.08536 | 11810 ft | 383 kts | 330° |
| 2026-04-26 03:03 | -25.85041 | 28.07095 | 12334 ft | 386 kts | 329° |
| 2026-04-26 03:04 | -25.82690 | 28.05632 | 12858 ft | 390 kts | 329° |
| 2026-04-26 03:04 | -25.80314 | 28.04148 | 13380 ft | 393 kts | 329° |
| 2026-04-26 03:04 | -25.77917 | 28.02653 | 13914 ft | 397 kts | 329° |
| 2026-04-26 03:04 | -25.75494 | 28.01150 | 14377 ft | 401 kts | 329° |
| 2026-04-26 03:05 | -25.73050 | 27.99642 | 14849 ft | 404 kts | 329° |
| 2026-04-26 03:05 | -25.70588 | 27.98126 | 15337 ft | 406 kts | 329° |
| 2026-04-26 03:05 | -25.68111 | 27.96602 | 15830 ft | 408 kts | 329° |
| 2026-04-26 03:05 | -25.65619 | 27.95067 | 16309 ft | 411 kts | 329° |
| 2026-04-26 03:06 | -25.63110 | 27.93522 | 16810 ft | 413 kts | 329° |
| 2026-04-26 03:06 | -25.60587 | 27.91971 | 17302 ft | 416 kts | 328° |
| 2026-04-26 03:06 | -25.58053 | 27.90413 | 17783 ft | 418 kts | 328° |
| 2026-04-26 03:06 | -25.55585 | 27.88709 | 18232 ft | 418 kts | 320° |
| 2026-04-26 03:07 | -25.53295 | 27.86712 | 18674 ft | 420 kts | 319° |
| 2026-04-26 03:07 | -25.50995 | 27.84697 | 19052 ft | 423 kts | 319° |
| 2026-04-26 03:07 | -25.48678 | 27.82671 | 19429 ft | 426 kts | 319° |
| 2026-04-26 03:07 | -25.46345 | 27.80635 | 19785 ft | 428 kts | 319° |
| 2026-04-26 03:08 | -25.43995 | 27.78588 | 20156 ft | 431 kts | 319° |
| 2026-04-26 03:08 | -25.41663 | 27.76560 | 20493 ft | 434 kts | 319° |
| 2026-04-26 03:08 | -25.39283 | 27.74490 | 20834 ft | 436 kts | 319° |
| 2026-04-26 03:08 | -25.36891 | 27.72406 | 21162 ft | 439 kts | 319° |
| 2026-04-26 03:09 | -25.34487 | 27.70308 | 21485 ft | 441 kts | 318° |
| 2026-04-26 03:09 | -25.32068 | 27.68202 | 21806 ft | 444 kts | 318° |
| 2026-04-26 03:09 | -25.29634 | 27.66088 | 22108 ft | 446 kts | 318° |
| 2026-04-26 03:09 | -25.27186 | 27.63963 | 22388 ft | 449 kts | 318° |
| 2026-04-26 03:10 | -25.24725 | 27.61827 | 22673 ft | 451 kts | 318° |
| 2026-04-26 03:10 | -25.22255 | 27.59684 | 22953 ft | 453 kts | 318° |
| 2026-04-26 03:10 | -25.19770 | 27.57527 | 23217 ft | 455 kts | 318° |
| 2026-04-26 03:10 | -25.17275 | 27.55361 | 23468 ft | 457 kts | 318° |
| 2026-04-26 03:11 | -25.14768 | 27.53186 | 23717 ft | 460 kts | 318° |
| 2026-04-26 03:11 | -25.12251 | 27.51002 | 23949 ft | 462 kts | 318° |
| 2026-04-26 03:11 | -25.09719 | 27.48808 | 24145 ft | 463 kts | 318° |
| 2026-04-26 03:11 | -25.07179 | 27.46611 | 24230 ft | 466 kts | 318° |
| 2026-04-26 03:12 | -25.04618 | 27.44396 | 24254 ft | 472 kts | 318° |
| 2026-04-26 03:12 | -25.02049 | 27.42124 | 24309 ft | 475 kts | 316° |
| 2026-04-26 03:12 | -24.99532 | 27.39750 | 24422 ft | 477 kts | 315° |
| 2026-04-26 03:12 | -24.97052 | 27.37295 | 24533 ft | 479 kts | 314° |
| 2026-04-26 03:13 | -24.94598 | 27.34802 | 24640 ft | 481 kts | 313° |
| 2026-04-26 03:13 | -24.92133 | 27.32288 | 24755 ft | 483 kts | 313° |
| 2026-04-26 03:13 | -24.89650 | 27.29782 | 24910 ft | 484 kts | 313° |
| 2026-04-26 03:13 | -24.87154 | 27.27296 | 25099 ft | 484 kts | 314° |
| 2026-04-26 03:14 | -24.84641 | 27.24825 | 25295 ft | 484 kts | 314° |
| 2026-04-26 03:14 | -24.82120 | 27.22366 | 25498 ft | 484 kts | 314° |
| 2026-04-26 03:14 | -24.79600 | 27.19913 | 25678 ft | 484 kts | 314° |
| 2026-04-26 03:14 | -24.77086 | 27.17461 | 25881 ft | 483 kts | 314° |
| 2026-04-26 03:15 | -24.74572 | 27.15004 | 26078 ft | 483 kts | 313° |
| 2026-04-26 03:15 | -24.72065 | 27.12546 | 26284 ft | 483 kts | 313° |
| 2026-04-26 03:15 | -24.69559 | 27.10089 | 26506 ft | 482 kts | 313° |
| 2026-04-26 03:15 | -24.67058 | 27.07637 | 26728 ft | 481 kts | 313° |
| 2026-04-26 03:16 | -24.64589 | 27.05219 | 26941 ft | 481 kts | 313° |
| 2026-04-26 03:16 | -24.62058 | 27.02742 | 27158 ft | 480 kts | 313° |
| 2026-04-26 03:16 | -24.59564 | 27.00305 | 27386 ft | 480 kts | 313° |
| 2026-04-26 03:16 | -24.57066 | 26.97870 | 27597 ft | 480 kts | 313° |
| 2026-04-26 03:17 | -24.54605 | 26.95473 | 27798 ft | 480 kts | 313° |
| 2026-04-26 03:17 | -24.52073 | 26.93009 | 28013 ft | 479 kts | 312° |
| 2026-04-26 03:17 | -24.49612 | 26.90610 | 28235 ft | 479 kts | 312° |
| 2026-04-26 03:17 | -24.47122 | 26.88183 | 28470 ft | 479 kts | 312° |
| 2026-04-26 03:18 | -24.44634 | 26.85759 | 28692 ft | 478 kts | 312° |
| 2026-04-26 03:18 | -24.42152 | 26.83342 | 28949 ft | 477 kts | 312° |
| 2026-04-26 03:18 | -24.39672 | 26.80930 | 29198 ft | 476 kts | 312° |
| 2026-04-26 03:18 | -24.37195 | 26.78523 | 29449 ft | 475 kts | 311° |
| 2026-04-26 03:19 | -24.34720 | 26.76121 | 29693 ft | 475 kts | 311° |
| 2026-04-26 03:19 | -24.32238 | 26.73723 | 29896 ft | 476 kts | 313° |
| 2026-04-26 03:19 | -24.29593 | 26.71500 | 30106 ft | 480 kts | 316° |
| 2026-04-26 03:19 | -24.26905 | 26.69322 | 30330 ft | 480 kts | 316° |
| 2026-04-26 03:20 | -24.24216 | 26.67148 | 30540 ft | 479 kts | 317° |
| 2026-04-26 03:20 | -24.21536 | 26.64984 | 30758 ft | 479 kts | 317° |
| 2026-04-26 03:20 | -24.18858 | 26.62821 | 30988 ft | 478 kts | 316° |
| 2026-04-26 03:20 | -24.16189 | 26.60664 | 31223 ft | 477 kts | 316° |
| 2026-04-26 03:21 | -24.13525 | 26.58510 | 31432 ft | 476 kts | 316° |
| 2026-04-26 03:21 | -24.10858 | 26.56358 | 31677 ft | 475 kts | 316° |
| 2026-04-26 03:21 | -24.08205 | 26.54221 | 31921 ft | 473 kts | 317° |
| 2026-04-26 03:21 | -24.05555 | 26.52088 | 32157 ft | 472 kts | 317° |
| 2026-04-26 03:22 | -24.02913 | 26.49959 | 32400 ft | 471 kts | 317° |
| 2026-04-26 03:22 | -24.00279 | 26.47834 | 32652 ft | 470 kts | 317° |
| 2026-04-26 03:22 | -23.97651 | 26.45717 | 32906 ft | 469 kts | 317° |
| 2026-04-26 03:22 | -23.95025 | 26.43605 | 33164 ft | 468 kts | 317° |
| 2026-04-26 03:23 | -23.92441 | 26.41529 | 33420 ft | 467 kts | 317° |
| 2026-04-26 03:23 | -23.89830 | 26.39430 | 33684 ft | 465 kts | 317° |
| 2026-04-26 03:23 | -23.87227 | 26.37337 | 33951 ft | 464 kts | 317° |
| 2026-04-26 03:23 | -23.84630 | 26.35248 | 34154 ft | 464 kts | 317° |
| 2026-04-26 03:24 | -23.79432 | 26.31082 | 34209 ft | 463 kts | 317° |
| 2026-04-26 03:24 | -23.74233 | 26.26930 | 34209 ft | 463 kts | 317° |
| 2026-04-26 03:25 | -23.68965 | 26.22866 | 34209 ft | 464 kts | 320° |
| 2026-04-26 03:25 | -23.63495 | 26.19093 | 34206 ft | 466 kts | 322° |
| 2026-04-26 03:26 | -23.57970 | 26.15396 | 34192 ft | 466 kts | 322° |
| 2026-04-26 03:26 | -23.52544 | 26.11554 | 34198 ft | 463 kts | 318° |
| 2026-04-26 03:27 | -23.47426 | 26.07329 | 34205 ft | 461 kts | 315° |
| 2026-04-26 03:27 | -23.42397 | 26.02995 | 34210 ft | 461 kts | 315° |
| 2026-04-26 03:28 | -23.37309 | 25.98725 | 34214 ft | 462 kts | 316° |
| 2026-04-26 03:28 | -23.32161 | 25.94516 | 34207 ft | 463 kts | 317° |
| 2026-04-26 03:29 | -23.27001 | 25.90322 | 34218 ft | 462 kts | 317° |
| 2026-04-26 03:29 | -23.21867 | 25.86123 | 34217 ft | 462 kts | 316° |
| 2026-04-26 03:30 | -23.16741 | 25.81918 | 34219 ft | 461 kts | 316° |
| 2026-04-26 03:30 | -23.11618 | 25.77720 | 34216 ft | 461 kts | 316° |
| 2026-04-26 03:31 | -23.06491 | 25.73530 | 34213 ft | 461 kts | 316° |
| 2026-04-26 03:31 | -23.01359 | 25.69344 | 34212 ft | 461 kts | 316° |
| 2026-04-26 03:32 | -22.96229 | 25.65160 | 34212 ft | 461 kts | 316° |
| 2026-04-26 03:32 | -22.91080 | 25.61001 | 34222 ft | 461 kts | 317° |
| 2026-04-26 03:33 | -22.85859 | 25.56949 | 34221 ft | 461 kts | 318° |
| 2026-04-26 03:33 | -22.81505 | 25.53611 | 34196 ft | 461 kts | 318° |
| 2026-04-26 03:34 | -22.76279 | 25.49572 | 34193 ft | 461 kts | 318° |
| 2026-04-26 03:34 | -22.71065 | 25.45515 | 34195 ft | 462 kts | 318° |
| 2026-04-26 03:35 | -22.65845 | 25.41468 | 34195 ft | 462 kts | 318° |
| 2026-04-26 03:35 | -22.60615 | 25.37421 | 34194 ft | 462 kts | 318° |
| 2026-04-26 03:36 | -22.55383 | 25.33379 | 34182 ft | 463 kts | 318° |
| 2026-04-26 03:36 | -22.50146 | 25.29326 | 34186 ft | 463 kts | 318° |
| 2026-04-26 03:37 | -22.44900 | 25.25271 | 34189 ft | 463 kts | 318° |
| 2026-04-26 03:37 | -22.39647 | 25.21222 | 34198 ft | 463 kts | 318° |
| 2026-04-26 03:38 | -22.34398 | 25.17173 | 34196 ft | 464 kts | 318° |
| 2026-04-26 03:38 | -22.29141 | 25.13130 | 34178 ft | 464 kts | 319° |
| 2026-04-26 03:39 | -22.23876 | 25.09078 | 34190 ft | 465 kts | 319° |
| 2026-04-26 03:39 | -22.18598 | 25.05019 | 34191 ft | 466 kts | 319° |
| 2026-04-26 03:40 | -22.13312 | 25.00963 | 34190 ft | 466 kts | 319° |
| 2026-04-26 03:40 | -22.08026 | 24.96915 | 34196 ft | 466 kts | 319° |
| 2026-04-26 03:41 | -22.02743 | 24.92869 | 34190 ft | 465 kts | 319° |
| 2026-04-26 03:41 | -21.97467 | 24.88829 | 34182 ft | 466 kts | 319° |
| 2026-04-26 03:42 | -21.92181 | 24.84782 | 34184 ft | 466 kts | 319° |
| 2026-04-26 03:42 | -21.86933 | 24.80759 | 34191 ft | 466 kts | 319° |
| 2026-04-26 03:43 | -21.81653 | 24.76714 | 34194 ft | 466 kts | 319° |
| 2026-04-26 03:43 | -21.76368 | 24.72664 | 34179 ft | 466 kts | 319° |
| 2026-04-26 03:44 | -21.71070 | 24.68614 | 34177 ft | 467 kts | 319° |
| 2026-04-26 03:44 | -21.65770 | 24.64556 | 34169 ft | 468 kts | 319° |
| 2026-04-26 03:45 | -21.60469 | 24.60496 | 34176 ft | 468 kts | 319° |
| 2026-04-26 03:45 | -21.55156 | 24.56435 | 34171 ft | 469 kts | 319° |
| 2026-04-26 03:46 | -21.49840 | 24.52382 | 34160 ft | 469 kts | 319° |
| 2026-04-26 03:47 | -21.41842 | 24.46302 | 34161 ft | 470 kts | 319° |
| 2026-04-26 03:47 | -21.36502 | 24.42243 | 34171 ft | 470 kts | 319° |
| 2026-04-26 03:48 | -21.31166 | 24.38184 | 34165 ft | 470 kts | 319° |
| 2026-04-26 03:48 | -21.25827 | 24.34130 | 34177 ft | 470 kts | 320° |
| 2026-04-26 03:49 | -21.20492 | 24.30081 | 34167 ft | 470 kts | 320° |
| 2026-04-26 03:49 | -21.15146 | 24.26031 | 34165 ft | 471 kts | 320° |
| 2026-04-26 03:50 | -21.09802 | 24.21980 | 34163 ft | 471 kts | 320° |
| 2026-04-26 03:50 | -21.04457 | 24.17925 | 34165 ft | 471 kts | 320° |
| 2026-04-26 03:51 | -20.99106 | 24.13879 | 34166 ft | 471 kts | 320° |
| 2026-04-26 03:51 | -20.93749 | 24.09833 | 34155 ft | 472 kts | 320° |
| 2026-04-26 03:52 | -20.88413 | 24.05817 | 34160 ft | 472 kts | 320° |
| 2026-04-26 03:52 | -20.83043 | 24.01782 | 34172 ft | 472 kts | 320° |
| 2026-04-26 03:53 | -20.77683 | 23.97743 | 34178 ft | 471 kts | 320° |
| 2026-04-26 03:53 | -20.72331 | 23.93703 | 34177 ft | 471 kts | 320° |
| 2026-04-26 03:54 | -20.66979 | 23.89673 | 34168 ft | 471 kts | 320° |
| 2026-04-26 03:54 | -20.61614 | 23.85649 | 34163 ft | 471 kts | 320° |
| 2026-04-26 03:55 | -20.56247 | 23.81625 | 34159 ft | 472 kts | 320° |
| 2026-04-26 03:55 | -20.50877 | 23.77590 | 34163 ft | 472 kts | 320° |
| 2026-04-26 03:56 | -20.45508 | 23.73560 | 34159 ft | 472 kts | 321° |
| 2026-04-26 03:56 | -20.40143 | 23.69549 | 34164 ft | 471 kts | 321° |
| 2026-04-26 03:57 | -20.34784 | 23.65542 | 34170 ft | 470 kts | 321° |
| 2026-04-26 03:57 | -20.29427 | 23.61541 | 34167 ft | 470 kts | 321° |
| 2026-04-26 03:58 | -20.24073 | 23.57539 | 34163 ft | 470 kts | 321° |
| 2026-04-26 03:58 | -20.18718 | 23.53544 | 34164 ft | 470 kts | 321° |
| 2026-04-26 03:59 | -20.13369 | 23.49552 | 34160 ft | 470 kts | 321° |
| 2026-04-26 03:59 | -20.08002 | 23.45553 | 34156 ft | 471 kts | 321° |
| 2026-04-26 04:00 | -20.02674 | 23.41586 | 34195 ft | 471 kts | 321° |
| 2026-04-26 04:00 | -19.97345 | 23.37554 | 34206 ft | 469 kts | 319° |
| 2026-04-26 04:01 | -19.92296 | 23.33192 | 34209 ft | 467 kts | 315° |
| 2026-04-26 04:01 | -19.87388 | 23.28681 | 34198 ft | 466 kts | 315° |
| 2026-04-26 04:02 | -19.82436 | 23.24225 | 34178 ft | 467 kts | 316° |
| 2026-04-26 04:02 | -19.77420 | 23.19832 | 34167 ft | 468 kts | 317° |
| 2026-04-26 04:03 | -19.72393 | 23.15456 | 34153 ft | 468 kts | 316° |
| 2026-04-26 04:03 | -19.67374 | 23.11063 | 34152 ft | 468 kts | 316° |
| 2026-04-26 04:04 | -19.62363 | 23.06668 | 34161 ft | 467 kts | 316° |
| 2026-04-26 04:04 | -19.57352 | 23.02277 | 34159 ft | 467 kts | 317° |
| 2026-04-26 04:05 | -19.52340 | 22.97893 | 34160 ft | 467 kts | 317° |
| 2026-04-26 04:05 | -19.47316 | 22.93503 | 34150 ft | 468 kts | 317° |
| 2026-04-26 04:06 | -19.42325 | 22.89151 | 34145 ft | 468 kts | 317° |
| 2026-04-26 04:06 | -19.37297 | 22.84769 | 34150 ft | 468 kts | 317° |
| 2026-04-26 04:07 | -19.32268 | 22.80385 | 34153 ft | 468 kts | 317° |
| 2026-04-26 04:07 | -19.27250 | 22.76001 | 34141 ft | 468 kts | 317° |
| 2026-04-26 04:08 | -19.22221 | 22.71619 | 34142 ft | 468 kts | 318° |
| 2026-04-26 04:08 | -19.17183 | 22.67254 | 34146 ft | 468 kts | 318° |
| 2026-04-26 04:09 | -19.12140 | 22.62898 | 34148 ft | 468 kts | 318° |
| 2026-04-26 04:09 | -19.07091 | 22.58544 | 34146 ft | 468 kts | 318° |
| 2026-04-26 04:10 | -19.02049 | 22.54192 | 34140 ft | 468 kts | 319° |
| 2026-04-26 04:10 | -18.97002 | 22.49838 | 34142 ft | 469 kts | 319° |
| 2026-04-26 04:11 | -18.91946 | 22.45483 | 34139 ft | 469 kts | 319° |
| 2026-04-26 04:11 | -18.86901 | 22.41119 | 34149 ft | 469 kts | 318° |
| 2026-04-26 04:12 | -18.81864 | 22.36754 | 34152 ft | 468 kts | 318° |
| 2026-04-26 04:12 | -18.76827 | 22.32394 | 34148 ft | 468 kts | 318° |
| 2026-04-26 04:13 | -18.71780 | 22.28043 | 34144 ft | 468 kts | 319° |
| 2026-04-26 04:13 | -18.66731 | 22.23690 | 34134 ft | 469 kts | 319° |
| 2026-04-26 04:14 | -18.61685 | 22.19338 | 34134 ft | 469 kts | 319° |
| 2026-04-26 04:14 | -18.56634 | 22.14990 | 34137 ft | 469 kts | 319° |
| 2026-04-26 04:15 | -18.51581 | 22.10643 | 34141 ft | 469 kts | 319° |
| 2026-04-26 04:15 | -18.46568 | 22.06331 | 34147 ft | 468 kts | 319° |
| 2026-04-26 04:16 | -18.41518 | 22.01994 | 34140 ft | 469 kts | 320° |
| 2026-04-26 04:16 | -18.36456 | 21.97659 | 34140 ft | 469 kts | 320° |
| 2026-04-26 04:17 | -18.31390 | 21.93312 | 34140 ft | 469 kts | 319° |
| 2026-04-26 04:17 | -18.26337 | 21.88971 | 34138 ft | 469 kts | 320° |
| 2026-04-26 04:18 | -18.21275 | 21.84636 | 34140 ft | 469 kts | 320° |
| 2026-04-26 04:18 | -18.16211 | 21.80297 | 34135 ft | 469 kts | 320° |
| 2026-04-26 04:19 | -18.11145 | 21.75959 | 34137 ft | 470 kts | 320° |
| 2026-04-26 04:19 | -18.06067 | 21.71629 | 34138 ft | 470 kts | 320° |
| 2026-04-26 04:20 | -18.01002 | 21.67351 | 34136 ft | 470 kts | 320° |
| 2026-04-26 04:20 | -17.96018 | 21.62903 | 34141 ft | 470 kts | 316° |
| 2026-04-26 04:21 | -17.91285 | 21.58182 | 34142 ft | 469 kts | 315° |
| 2026-04-26 04:21 | -17.86572 | 21.53427 | 34139 ft | 470 kts | 316° |
| 2026-04-26 04:22 | -17.82612 | 21.49523 | 34130 ft | 470 kts | 316° |
| 2026-04-26 04:22 | -17.77804 | 21.44861 | 34135 ft | 471 kts | 316° |
| 2026-04-26 04:23 | -17.72969 | 21.40205 | 34137 ft | 471 kts | 316° |
| 2026-04-26 04:23 | -17.68149 | 21.35538 | 34133 ft | 472 kts | 316° |
| 2026-04-26 04:24 | -17.63336 | 21.30862 | 34134 ft | 472 kts | 316° |
| 2026-04-26 04:24 | -17.58518 | 21.26188 | 34134 ft | 472 kts | 316° |
| 2026-04-26 04:25 | -17.53696 | 21.21521 | 34135 ft | 472 kts | 316° |
| 2026-04-26 04:25 | -17.48877 | 21.16854 | 34143 ft | 472 kts | 316° |
| 2026-04-26 04:26 | -17.44053 | 21.12187 | 34137 ft | 472 kts | 316° |
| 2026-04-26 04:26 | -17.39229 | 21.07526 | 34140 ft | 472 kts | 316° |
| 2026-04-26 04:27 | -17.34401 | 21.02878 | 34144 ft | 471 kts | 316° |
| 2026-04-26 04:27 | -17.29584 | 20.98221 | 34147 ft | 471 kts | 316° |
| 2026-04-26 04:28 | -17.24763 | 20.93563 | 34128 ft | 472 kts | 317° |
| 2026-04-26 04:28 | -17.19926 | 20.88904 | 34127 ft | 473 kts | 316° |
| 2026-04-26 04:29 | -17.15084 | 20.84248 | 34127 ft | 473 kts | 316° |
| 2026-04-26 04:29 | -17.10236 | 20.79585 | 34133 ft | 474 kts | 317° |
| 2026-04-26 04:30 | -17.05383 | 20.74918 | 34127 ft | 474 kts | 317° |
| 2026-04-26 04:30 | -17.00530 | 20.70257 | 34131 ft | 474 kts | 317° |
| 2026-04-26 04:31 | -16.95702 | 20.65623 | 34133 ft | 475 kts | 317° |
| 2026-04-26 04:31 | -16.90839 | 20.60955 | 34134 ft | 475 kts | 317° |
| 2026-04-26 04:32 | -16.85974 | 20.56298 | 34129 ft | 475 kts | 317° |
| 2026-04-26 04:32 | -16.81102 | 20.51635 | 34133 ft | 475 kts | 317° |
| 2026-04-26 04:33 | -16.76232 | 20.46975 | 34133 ft | 475 kts | 317° |
| 2026-04-26 04:33 | -16.71362 | 20.42311 | 34136 ft | 475 kts | 317° |
| 2026-04-26 04:34 | -16.66492 | 20.37655 | 34144 ft | 475 kts | 317° |
| 2026-04-26 04:34 | -16.61622 | 20.33007 | 34142 ft | 475 kts | 317° |
| 2026-04-26 04:35 | -16.56747 | 20.28353 | 34136 ft | 475 kts | 317° |
| 2026-04-26 04:35 | -16.51868 | 20.23702 | 34136 ft | 475 kts | 317° |
| 2026-04-26 04:36 | -16.46995 | 20.19053 | 34140 ft | 475 kts | 317° |
| 2026-04-26 04:36 | -16.42120 | 20.14412 | 34138 ft | 475 kts | 317° |
| 2026-04-26 04:37 | -16.37241 | 20.09773 | 34138 ft | 475 kts | 317° |
| 2026-04-26 04:37 | -16.32365 | 20.05138 | 34140 ft | 475 kts | 317° |
| 2026-04-26 04:38 | -16.27493 | 20.00494 | 34139 ft | 475 kts | 317° |
| 2026-04-26 04:38 | -16.22618 | 19.95864 | 34140 ft | 474 kts | 317° |
| 2026-04-26 04:39 | -16.17729 | 19.91237 | 34136 ft | 475 kts | 317° |
| 2026-04-26 04:39 | -16.12847 | 19.86613 | 34138 ft | 475 kts | 317° |
| 2026-04-26 04:40 | -16.08004 | 19.82021 | 34138 ft | 474 kts | 317° |
| 2026-04-26 04:40 | -16.03124 | 19.77397 | 34133 ft | 475 kts | 317° |
| 2026-04-26 04:41 | -15.98247 | 19.72772 | 34129 ft | 475 kts | 317° |
| 2026-04-26 04:41 | -15.93367 | 19.68146 | 34129 ft | 475 kts | 317° |
| 2026-04-26 04:42 | -15.88476 | 19.63533 | 34132 ft | 475 kts | 317° |
| 2026-04-26 04:42 | -15.83581 | 19.58926 | 34127 ft | 475 kts | 317° |
| 2026-04-26 04:43 | -15.78688 | 19.54310 | 34123 ft | 475 kts | 317° |
| 2026-04-26 04:43 | -15.73797 | 19.49699 | 34127 ft | 475 kts | 317° |
| 2026-04-26 04:44 | -15.68902 | 19.45086 | 34129 ft | 475 kts | 317° |
| 2026-04-26 04:44 | -15.64015 | 19.40476 | 34131 ft | 475 kts | 317° |
| 2026-04-26 04:45 | -15.59123 | 19.35866 | 34129 ft | 475 kts | 317° |
| 2026-04-26 04:45 | -15.54229 | 19.31275 | 34131 ft | 474 kts | 317° |
| 2026-04-26 04:46 | -15.49334 | 19.26683 | 34127 ft | 474 kts | 317° |
| 2026-04-26 04:46 | -15.44450 | 19.22083 | 34122 ft | 474 kts | 317° |
| 2026-04-26 04:47 | -15.39562 | 19.17484 | 34126 ft | 475 kts | 317° |
| 2026-04-26 04:47 | -15.34666 | 19.12892 | 34126 ft | 475 kts | 318° |
| 2026-04-26 04:48 | -15.27314 | 19.06009 | 34129 ft | 475 kts | 317° |
| 2026-04-26 04:48 | -15.22414 | 19.01426 | 34125 ft | 475 kts | 317° |
| 2026-04-26 04:49 | -15.17516 | 18.96842 | 34121 ft | 474 kts | 318° |
| 2026-04-26 04:49 | -15.12622 | 18.92264 | 34121 ft | 475 kts | 318° |
| 2026-04-26 04:50 | -15.07723 | 18.87684 | 34124 ft | 475 kts | 318° |
| 2026-04-26 04:50 | -15.02810 | 18.83107 | 34118 ft | 475 kts | 318° |
| 2026-04-26 04:51 | -14.97906 | 18.78530 | 34126 ft | 475 kts | 318° |
| 2026-04-26 04:51 | -14.93043 | 18.73983 | 34130 ft | 475 kts | 318° |
| 2026-04-26 04:52 | -14.88143 | 18.69405 | 34124 ft | 474 kts | 318° |
| 2026-04-26 04:52 | -14.83242 | 18.64844 | 34128 ft | 474 kts | 318° |
| 2026-04-26 04:53 | -14.78337 | 18.60286 | 34129 ft | 474 kts | 318° |
| 2026-04-26 04:53 | -14.73440 | 18.55723 | 34129 ft | 474 kts | 318° |
| 2026-04-26 04:54 | -14.68544 | 18.51166 | 34130 ft | 474 kts | 318° |
| 2026-04-26 04:54 | -14.63642 | 18.46616 | 34129 ft | 474 kts | 318° |
| 2026-04-26 04:55 | -14.58743 | 18.42069 | 34129 ft | 474 kts | 318° |
| 2026-04-26 04:55 | -14.53839 | 18.37525 | 34128 ft | 474 kts | 318° |
| 2026-04-26 04:56 | -14.48944 | 18.32976 | 34123 ft | 474 kts | 318° |
| 2026-04-26 04:56 | -14.44046 | 18.28430 | 34125 ft | 474 kts | 318° |
| 2026-04-26 04:57 | -14.39135 | 18.23887 | 34129 ft | 473 kts | 318° |
| 2026-04-26 04:57 | -14.34234 | 18.19354 | 34128 ft | 473 kts | 318° |
| 2026-04-26 04:58 | -14.29335 | 18.14819 | 34124 ft | 473 kts | 318° |
| 2026-04-26 04:58 | -14.24437 | 18.10275 | 34124 ft | 473 kts | 318° |
| 2026-04-26 04:59 | -14.19533 | 18.05745 | 34125 ft | 473 kts | 319° |
| 2026-04-26 04:59 | -14.14622 | 18.01220 | 34125 ft | 473 kts | 319° |
| 2026-04-26 05:00 | -14.09748 | 17.96725 | 34129 ft | 474 kts | 319° |
| 2026-04-26 05:00 | -14.04839 | 17.92196 | 34121 ft | 474 kts | 319° |
| 2026-04-26 05:01 | -13.99930 | 17.87670 | 34122 ft | 474 kts | 319° |
| 2026-04-26 05:01 | -13.95022 | 17.83144 | 34122 ft | 474 kts | 318° |
| 2026-04-26 05:02 | -13.90109 | 17.78614 | 34122 ft | 474 kts | 319° |
| 2026-04-26 05:02 | -13.85192 | 17.74093 | 34124 ft | 474 kts | 319° |
| 2026-04-26 05:03 | -13.80277 | 17.69570 | 34126 ft | 474 kts | 319° |
| 2026-04-26 05:03 | -13.75365 | 17.65048 | 34126 ft | 474 kts | 319° |
| 2026-04-26 05:04 | -13.70475 | 17.60556 | 34124 ft | 474 kts | 319° |
| 2026-04-26 05:04 | -13.65553 | 17.56046 | 34125 ft | 474 kts | 319° |
| 2026-04-26 05:05 | -13.60632 | 17.51535 | 34130 ft | 474 kts | 319° |
| 2026-04-26 05:05 | -13.55713 | 17.47020 | 34130 ft | 474 kts | 319° |
| 2026-04-26 05:06 | -13.50784 | 17.42504 | 34115 ft | 475 kts | 319° |
| 2026-04-26 05:06 | -13.45850 | 17.37989 | 34115 ft | 475 kts | 319° |
| 2026-04-26 05:07 | -13.40917 | 17.33473 | 34117 ft | 475 kts | 319° |
| 2026-04-26 05:07 | -13.35982 | 17.28952 | 34116 ft | 475 kts | 319° |
| 2026-04-26 05:08 | -13.31043 | 17.24439 | 34117 ft | 475 kts | 319° |
| 2026-04-26 05:08 | -13.26905 | 17.20654 | 34118 ft | 475 kts | 319° |
| 2026-04-26 05:09 | -13.21964 | 17.16137 | 34115 ft | 476 kts | 319° |
| 2026-04-26 05:09 | -13.17020 | 17.11621 | 34109 ft | 476 kts | 319° |
| 2026-04-26 05:10 | -13.12102 | 17.07134 | 34109 ft | 476 kts | 319° |
| 2026-04-26 05:10 | -13.07146 | 17.02623 | 34121 ft | 476 kts | 319° |
| 2026-04-26 05:11 | -13.02191 | 16.98109 | 34115 ft | 476 kts | 319° |
| 2026-04-26 05:11 | -12.97230 | 16.93593 | 34116 ft | 477 kts | 319° |
| 2026-04-26 05:12 | -12.92273 | 16.89081 | 34122 ft | 477 kts | 319° |
| 2026-04-26 05:12 | -12.87313 | 16.84561 | 34117 ft | 477 kts | 319° |
| 2026-04-26 05:13 | -12.82351 | 16.80041 | 34116 ft | 477 kts | 320° |
| 2026-04-26 05:13 | -12.77379 | 16.75532 | 34119 ft | 478 kts | 320° |
| 2026-04-26 05:14 | -12.72404 | 16.71018 | 34120 ft | 478 kts | 320° |
| 2026-04-26 05:14 | -12.67425 | 16.66502 | 34125 ft | 478 kts | 320° |
| 2026-04-26 05:15 | -12.62450 | 16.61988 | 34129 ft | 478 kts | 320° |
| 2026-04-26 05:15 | -12.57476 | 16.57471 | 34126 ft | 478 kts | 320° |
| 2026-04-26 05:16 | -12.52494 | 16.52950 | 34127 ft | 479 kts | 320° |
| 2026-04-26 05:16 | -12.47506 | 16.48437 | 34120 ft | 479 kts | 320° |
| 2026-04-26 05:17 | -12.42512 | 16.43912 | 34123 ft | 479 kts | 320° |
| 2026-04-26 05:17 | -12.37523 | 16.39388 | 34124 ft | 479 kts | 320° |
| 2026-04-26 05:18 | -12.32527 | 16.34870 | 34124 ft | 479 kts | 320° |
| 2026-04-26 05:18 | -12.27563 | 16.30386 | 34126 ft | 479 kts | 320° |
| 2026-04-26 05:19 | -12.22562 | 16.25873 | 34119 ft | 480 kts | 320° |
| 2026-04-26 05:19 | -12.17564 | 16.21347 | 34242 ft | 480 kts | 320° |
| 2026-04-26 05:20 | -12.15072 | 16.19087 | 34559 ft | 478 kts | 320° |
| 2026-04-26 05:20 | -12.12590 | 16.16837 | 34864 ft | 476 kts | 320° |
| 2026-04-26 05:20 | -12.10116 | 16.14595 | 35151 ft | 475 kts | 320° |
| 2026-04-26 05:20 | -12.07643 | 16.12359 | 35426 ft | 474 kts | 320° |
| 2026-04-26 05:21 | -12.05177 | 16.10132 | 35702 ft | 473 kts | 320° |
| 2026-04-26 05:21 | -12.02715 | 16.07911 | 35967 ft | 472 kts | 320° |
| 2026-04-26 05:21 | -12.00254 | 16.05689 | 36097 ft | 472 kts | 320° |
| 2026-04-26 05:21 | -11.97801 | 16.03470 | 36118 ft | 471 kts | 320° |
| 2026-04-26 05:22 | -11.92890 | 15.99039 | 36116 ft | 471 kts | 320° |
| 2026-04-26 05:22 | -11.87983 | 15.94609 | 36117 ft | 471 kts | 320° |
| 2026-04-26 05:23 | -11.83082 | 15.90178 | 36114 ft | 471 kts | 320° |
| 2026-04-26 05:23 | -11.78171 | 15.85750 | 36115 ft | 471 kts | 320° |
| 2026-04-26 05:24 | -11.73260 | 15.81323 | 36119 ft | 471 kts | 320° |
| 2026-04-26 05:24 | -11.68346 | 15.76897 | 36116 ft | 471 kts | 321° |
| 2026-04-26 05:25 | -11.63433 | 15.72471 | 36120 ft | 471 kts | 320° |
| 2026-04-26 05:25 | -11.58544 | 15.68070 | 36119 ft | 472 kts | 321° |
| 2026-04-26 05:26 | -11.53627 | 15.63641 | 36115 ft | 472 kts | 321° |
| 2026-04-26 05:26 | -11.48707 | 15.59220 | 36119 ft | 471 kts | 321° |
| 2026-04-26 05:27 | -11.43796 | 15.54806 | 36119 ft | 471 kts | 321° |
| 2026-04-26 05:27 | -11.38880 | 15.50385 | 36120 ft | 471 kts | 321° |
| 2026-04-26 05:28 | -11.33964 | 15.45972 | 36118 ft | 471 kts | 321° |
| 2026-04-26 05:28 | -11.29048 | 15.41562 | 36118 ft | 471 kts | 321° |
| 2026-04-26 05:29 | -11.24130 | 15.37158 | 36115 ft | 471 kts | 321° |
| 2026-04-26 05:29 | -11.19211 | 15.32754 | 36110 ft | 471 kts | 321° |
| 2026-04-26 05:30 | -11.14301 | 15.28342 | 36109 ft | 471 kts | 321° |
| 2026-04-26 05:30 | -11.09392 | 15.23931 | 36112 ft | 470 kts | 321° |
| 2026-04-26 05:31 | -11.04479 | 15.19533 | 36110 ft | 470 kts | 321° |
| 2026-04-26 05:31 | -10.99558 | 15.15142 | 36109 ft | 470 kts | 321° |
| 2026-04-26 05:32 | -10.94647 | 15.10747 | 36110 ft | 470 kts | 321° |
| 2026-04-26 05:32 | -10.89734 | 15.06354 | 36102 ft | 470 kts | 321° |
| 2026-04-26 05:33 | -10.84823 | 15.01957 | 36101 ft | 470 kts | 321° |
| 2026-04-26 05:33 | -10.79905 | 14.97560 | 36102 ft | 470 kts | 321° |
| 2026-04-26 05:34 | -10.75010 | 14.93201 | 36102 ft | 470 kts | 321° |
| 2026-04-26 05:34 | -10.70087 | 14.88814 | 36091 ft | 470 kts | 321° |
| 2026-04-26 05:35 | -10.65171 | 14.84422 | 36089 ft | 470 kts | 321° |
| 2026-04-26 05:35 | -10.60252 | 14.80034 | 36089 ft | 470 kts | 321° |
| 2026-04-26 05:36 | -10.55329 | 14.75649 | 36085 ft | 471 kts | 321° |
| 2026-04-26 05:36 | -10.50404 | 14.71259 | 36079 ft | 471 kts | 321° |
| 2026-04-26 05:37 | -10.45480 | 14.66866 | 36079 ft | 471 kts | 321° |
| 2026-04-26 05:37 | -10.40519 | 14.62448 | 36065 ft | 471 kts | 321° |
| 2026-04-26 05:38 | -10.35585 | 14.58061 | 36058 ft | 471 kts | 321° |
| 2026-04-26 05:38 | -10.30676 | 14.53708 | 36058 ft | 471 kts | 321° |
| 2026-04-26 05:39 | -10.25707 | 14.49296 | 36041 ft | 472 kts | 321° |
| 2026-04-26 05:39 | -10.20802 | 14.44943 | 36032 ft | 472 kts | 321° |
| 2026-04-26 05:40 | -10.15858 | 14.40560 | 36031 ft | 472 kts | 321° |
| 2026-04-26 05:40 | -10.10918 | 14.36176 | 36030 ft | 472 kts | 321° |
| 2026-04-26 05:41 | -10.05978 | 14.31797 | 36010 ft | 472 kts | 321° |
| 2026-04-26 05:41 | -10.01031 | 14.27415 | 36010 ft | 472 kts | 321° |
| 2026-04-26 05:42 | -9.96084 | 14.23036 | 36009 ft | 472 kts | 321° |
| 2026-04-26 05:42 | -9.91134 | 14.18657 | 36006 ft | 472 kts | 321° |
| 2026-04-26 05:43 | -9.86185 | 14.14281 | 36007 ft | 472 kts | 321° |
| 2026-04-26 05:43 | -9.81239 | 14.09900 | 36007 ft | 472 kts | 321° |
| 2026-04-26 05:44 | -9.76296 | 14.05526 | 36006 ft | 472 kts | 321° |
| 2026-04-26 05:44 | -9.71343 | 14.01153 | 36006 ft | 472 kts | 321° |
| 2026-04-26 05:45 | -9.66397 | 13.96782 | 36003 ft | 472 kts | 321° |
| 2026-04-26 05:45 | -9.61485 | 13.92439 | 36006 ft | 471 kts | 321° |
| 2026-04-26 05:46 | -9.56541 | 13.88074 | 36001 ft | 471 kts | 321° |
| 2026-04-26 05:46 | -9.51595 | 13.83713 | 36004 ft | 471 kts | 322° |
| 2026-04-26 05:47 | -9.46649 | 13.79349 | 35999 ft | 472 kts | 322° |
| 2026-04-26 05:47 | -9.41695 | 13.74986 | 36000 ft | 472 kts | 322° |
| 2026-04-26 05:48 | -9.36739 | 13.70625 | 35998 ft | 472 kts | 322° |
| 2026-04-26 05:48 | -9.31785 | 13.66255 | 35999 ft | 472 kts | 322° |
| 2026-04-26 05:49 | -9.24355 | 13.59704 | 36000 ft | 472 kts | 322° |
| 2026-04-26 05:50 | -9.19397 | 13.55347 | 36002 ft | 472 kts | 322° |
| 2026-04-26 05:50 | -9.14438 | 13.50988 | 35999 ft | 472 kts | 322° |
| 2026-04-26 05:51 | -9.09478 | 13.46622 | 35997 ft | 472 kts | 322° |
| 2026-04-26 05:51 | -9.04526 | 13.42260 | 35988 ft | 472 kts | 322° |
| 2026-04-26 05:52 | -8.99570 | 13.37913 | 35979 ft | 471 kts | 322° |
| 2026-04-26 05:52 | -8.94614 | 13.33569 | 35968 ft | 471 kts | 322° |
| 2026-04-26 05:53 | -8.89663 | 13.29219 | 35962 ft | 471 kts | 322° |
| 2026-04-26 05:53 | -8.84573 | 13.25075 | 35961 ft | 467 kts | 331° |
| 2026-04-26 05:54 | -8.78742 | 13.22299 | 35961 ft | 463 kts | 341° |
| 2026-04-26 05:54 | -8.73787 | 13.20232 | 35964 ft | 464 kts | 340° |
| 2026-04-26 05:55 | -8.67827 | 13.17729 | 35970 ft | 464 kts | 340° |
| 2026-04-26 05:55 | -8.61859 | 13.15228 | 35981 ft | 464 kts | 340° |
| 2026-04-26 05:56 | -8.55885 | 13.12730 | 35996 ft | 464 kts | 340° |
| 2026-04-26 05:56 | -8.49913 | 13.10232 | 36001 ft | 464 kts | 340° |
| 2026-04-26 05:57 | -8.43947 | 13.07747 | 35997 ft | 464 kts | 340° |
| 2026-04-26 05:57 | -8.37982 | 13.05265 | 35993 ft | 464 kts | 340° |
| 2026-04-26 05:58 | -8.32018 | 13.02773 | 35996 ft | 464 kts | 340° |
| 2026-04-26 05:58 | -8.26057 | 13.00280 | 35995 ft | 464 kts | 340° |
| 2026-04-26 05:59 | -8.20097 | 12.97796 | 35992 ft | 463 kts | 340° |
| 2026-04-26 05:59 | -8.14138 | 12.95307 | 35992 ft | 463 kts | 340° |
| 2026-04-26 06:00 | -8.08180 | 12.92820 | 35993 ft | 463 kts | 340° |
| 2026-04-26 06:00 | -8.02221 | 12.90333 | 35991 ft | 463 kts | 340° |
| 2026-04-26 06:01 | -7.96262 | 12.87850 | 35995 ft | 464 kts | 340° |
| 2026-04-26 06:01 | -7.90336 | 12.85392 | 35994 ft | 464 kts | 340° |
| 2026-04-26 06:02 | -7.84373 | 12.82911 | 35994 ft | 464 kts | 340° |
| 2026-04-26 06:02 | -7.78405 | 12.80426 | 35993 ft | 464 kts | 340° |
| 2026-04-26 06:03 | -7.72442 | 12.77939 | 35991 ft | 464 kts | 340° |
| 2026-04-26 06:03 | -7.66483 | 12.75460 | 35992 ft | 463 kts | 340° |
| 2026-04-26 06:04 | -7.60524 | 12.72987 | 35997 ft | 463 kts | 340° |
| 2026-04-26 06:04 | -7.54571 | 12.70515 | 35997 ft | 463 kts | 340° |
| 2026-04-26 06:05 | -7.48624 | 12.68036 | 35994 ft | 462 kts | 340° |
| 2026-04-26 06:05 | -7.42681 | 12.65557 | 35994 ft | 462 kts | 340° |
| 2026-04-26 06:06 | -7.36725 | 12.63084 | 35991 ft | 463 kts | 341° |
| 2026-04-26 06:06 | -7.30762 | 12.60627 | 35988 ft | 463 kts | 341° |
| 2026-04-26 06:07 | -7.24801 | 12.58158 | 35988 ft | 463 kts | 341° |
| 2026-04-26 06:07 | -7.18838 | 12.55686 | 35988 ft | 464 kts | 341° |
| 2026-04-26 06:08 | -7.12875 | 12.53204 | 35988 ft | 464 kts | 341° |
| 2026-04-26 06:08 | -7.06911 | 12.50725 | 35989 ft | 464 kts | 341° |
| 2026-04-26 06:09 | -7.00978 | 12.48269 | 35987 ft | 464 kts | 341° |
| 2026-04-26 06:09 | -6.94964 | 12.45781 | 35985 ft | 465 kts | 341° |
| 2026-04-26 06:10 | -6.88985 | 12.43295 | 35988 ft | 465 kts | 341° |
| 2026-04-26 06:10 | -6.83004 | 12.40805 | 35988 ft | 465 kts | 341° |
| 2026-04-26 06:11 | -6.77021 | 12.38325 | 35992 ft | 465 kts | 341° |
| 2026-04-26 06:11 | -6.71042 | 12.35849 | 35993 ft | 464 kts | 341° |
| 2026-04-26 06:12 | -6.65106 | 12.33388 | 35995 ft | 464 kts | 341° |
| 2026-04-26 06:12 | -6.59128 | 12.30912 | 35992 ft | 464 kts | 341° |
| 2026-04-26 06:13 | -6.53152 | 12.28439 | 35995 ft | 464 kts | 341° |
| 2026-04-26 06:13 | -6.47176 | 12.25964 | 35994 ft | 464 kts | 341° |
| 2026-04-26 06:14 | -6.41203 | 12.23485 | 35996 ft | 465 kts | 341° |
| 2026-04-26 06:14 | -6.35227 | 12.21008 | 35995 ft | 464 kts | 341° |
| 2026-04-26 06:15 | -6.29247 | 12.18535 | 35996 ft | 464 kts | 341° |
| 2026-04-26 06:15 | -6.23277 | 12.16068 | 36001 ft | 464 kts | 341° |
| 2026-04-26 06:16 | -6.17312 | 12.13600 | 35999 ft | 463 kts | 341° |
| 2026-04-26 06:16 | -6.11349 | 12.11137 | 35998 ft | 463 kts | 341° |
| 2026-04-26 06:17 | -6.05389 | 12.08670 | 35996 ft | 463 kts | 341° |
| 2026-04-26 06:17 | -5.99432 | 12.06208 | 35994 ft | 463 kts | 341° |
| 2026-04-26 06:18 | -5.93475 | 12.03751 | 36000 ft | 463 kts | 341° |
| 2026-04-26 06:18 | -5.87561 | 12.01309 | 36000 ft | 462 kts | 341° |
| 2026-04-26 06:19 | -5.81573 | 11.98838 | 36001 ft | 462 kts | 342° |
| 2026-04-26 06:19 | -5.75661 | 11.96403 | 35988 ft | 462 kts | 341° |
| 2026-04-26 06:20 | -5.69723 | 11.93948 | 35983 ft | 462 kts | 341° |
| 2026-04-26 06:20 | -5.63786 | 11.91487 | 35978 ft | 461 kts | 341° |
| 2026-04-26 06:21 | -5.57848 | 11.89039 | 35985 ft | 461 kts | 341° |
| 2026-04-26 06:21 | -5.51903 | 11.86593 | 35981 ft | 462 kts | 341° |
| 2026-04-26 06:22 | -5.45949 | 11.84138 | 35973 ft | 462 kts | 341° |
| 2026-04-26 06:22 | -5.40002 | 11.81682 | 35973 ft | 462 kts | 341° |
| 2026-04-26 06:23 | -5.34051 | 11.79226 | 35964 ft | 462 kts | 341° |
| 2026-04-26 06:23 | -5.28094 | 11.76775 | 35966 ft | 462 kts | 341° |
| 2026-04-26 06:24 | -5.22183 | 11.74340 | 35974 ft | 463 kts | 341° |
| 2026-04-26 06:24 | -5.16232 | 11.71885 | 35975 ft | 462 kts | 341° |
| 2026-04-26 06:25 | -5.10279 | 11.69430 | 35974 ft | 462 kts | 341° |
| 2026-04-26 06:25 | -5.04336 | 11.66973 | 35968 ft | 462 kts | 341° |
| 2026-04-26 06:26 | -4.98403 | 11.64520 | 35971 ft | 461 kts | 341° |
| 2026-04-26 06:26 | -4.92475 | 11.62071 | 35967 ft | 460 kts | 341° |
| 2026-04-26 06:27 | -4.86552 | 11.59630 | 35963 ft | 460 kts | 341° |
| 2026-04-26 06:27 | -4.80634 | 11.57187 | 35972 ft | 459 kts | 341° |
| 2026-04-26 06:28 | -4.74729 | 11.54747 | 35975 ft | 459 kts | 341° |
| 2026-04-26 06:28 | -4.68828 | 11.52316 | 35975 ft | 458 kts | 341° |
| 2026-04-26 06:29 | -4.62968 | 11.49900 | 35975 ft | 458 kts | 341° |
| 2026-04-26 06:29 | -4.57073 | 11.47472 | 35973 ft | 458 kts | 341° |
| 2026-04-26 06:30 | -4.51181 | 11.45042 | 35978 ft | 458 kts | 341° |
| 2026-04-26 06:30 | -4.45282 | 11.42612 | 35975 ft | 458 kts | 341° |
| 2026-04-26 06:31 | -4.39382 | 11.40181 | 35969 ft | 459 kts | 341° |
| 2026-04-26 06:31 | -4.33474 | 11.37745 | 35969 ft | 459 kts | 341° |
| 2026-04-26 06:32 | -4.27564 | 11.35304 | 35969 ft | 460 kts | 341° |
| 2026-04-26 06:32 | -4.21650 | 11.32866 | 35969 ft | 460 kts | 341° |
| 2026-04-26 06:33 | -4.15734 | 11.30429 | 35985 ft | 460 kts | 341° |
| 2026-04-26 06:33 | -4.09814 | 11.27990 | 35974 ft | 460 kts | 340° |
| 2026-04-26 06:34 | -4.03880 | 11.25548 | 35980 ft | 461 kts | 340° |
| 2026-04-26 06:34 | -3.97945 | 11.23108 | 35983 ft | 461 kts | 340° |
| 2026-04-26 06:35 | -3.92007 | 11.20664 | 35981 ft | 462 kts | 340° |
| 2026-04-26 06:35 | -3.86066 | 11.18216 | 35983 ft | 462 kts | 340° |
| 2026-04-26 06:36 | -3.80126 | 11.15765 | 35980 ft | 462 kts | 340° |
| 2026-04-26 06:36 | -3.74182 | 11.13320 | 35992 ft | 462 kts | 340° |
| 2026-04-26 06:37 | -3.68229 | 11.10881 | 35990 ft | 463 kts | 340° |
| 2026-04-26 06:37 | -3.62269 | 11.08439 | 35991 ft | 463 kts | 340° |
| 2026-04-26 06:38 | -3.56345 | 11.06008 | 35995 ft | 463 kts | 340° |
| 2026-04-26 06:38 | -3.50383 | 11.03554 | 35996 ft | 464 kts | 340° |
| 2026-04-26 06:39 | -3.44419 | 11.01090 | 36003 ft | 464 kts | 340° |
| 2026-04-26 06:39 | -3.38451 | 10.98631 | 36005 ft | 464 kts | 340° |
| 2026-04-26 06:40 | -3.32485 | 10.96176 | 36015 ft | 463 kts | 340° |
| 2026-04-26 06:40 | -3.26521 | 10.93729 | 36019 ft | 463 kts | 340° |
| 2026-04-26 06:41 | -3.20565 | 10.91283 | 36019 ft | 463 kts | 340° |
| 2026-04-26 06:41 | -3.14611 | 10.88836 | 36023 ft | 462 kts | 340° |
| 2026-04-26 06:42 | -3.08657 | 10.86393 | 36016 ft | 462 kts | 340° |
| 2026-04-26 06:42 | -3.03704 | 10.84365 | 36014 ft | 462 kts | 340° |
| 2026-04-26 06:43 | -2.97756 | 10.81915 | 36014 ft | 463 kts | 339° |
| 2026-04-26 06:43 | -2.91791 | 10.79463 | 36004 ft | 464 kts | 339° |
| 2026-04-26 06:44 | -2.85821 | 10.77007 | 36002 ft | 464 kts | 339° |
| 2026-04-26 06:44 | -2.79845 | 10.74549 | 36003 ft | 465 kts | 339° |
| 2026-04-26 06:45 | -2.73856 | 10.72094 | 36004 ft | 465 kts | 339° |
| 2026-04-26 06:45 | -2.67870 | 10.69633 | 36006 ft | 465 kts | 339° |
| 2026-04-26 06:46 | -2.61879 | 10.67173 | 36006 ft | 465 kts | 339° |
| 2026-04-26 06:46 | -2.55885 | 10.64720 | 36013 ft | 465 kts | 339° |
| 2026-04-26 06:47 | -2.49896 | 10.62271 | 36018 ft | 465 kts | 339° |
| 2026-04-26 06:47 | -2.43912 | 10.59812 | 36020 ft | 465 kts | 339° |
| 2026-04-26 06:48 | -2.37928 | 10.57351 | 36026 ft | 465 kts | 339° |
| 2026-04-26 06:48 | -2.31944 | 10.54896 | 36022 ft | 465 kts | 339° |
| 2026-04-26 06:49 | -2.25963 | 10.52446 | 36020 ft | 465 kts | 339° |
| 2026-04-26 06:49 | -2.19981 | 10.49992 | 36023 ft | 464 kts | 339° |
| 2026-04-26 06:50 | -2.14012 | 10.47532 | 36023 ft | 464 kts | 339° |
| 2026-04-26 06:50 | -2.08083 | 10.45101 | 36025 ft | 464 kts | 339° |
| 2026-04-26 06:51 | -2.02114 | 10.42656 | 36026 ft | 464 kts | 339° |
| 2026-04-26 06:51 | -1.93154 | 10.38990 | 36022 ft | 463 kts | 339° |
| 2026-04-26 06:52 | -1.87177 | 10.36552 | 36020 ft | 464 kts | 339° |
| 2026-04-26 06:52 | -1.81213 | 10.34098 | 36005 ft | 461 kts | 339° |
| 2026-04-26 06:53 | -1.75307 | 10.31634 | 36003 ft | 459 kts | 339° |
| 2026-04-26 06:53 | -1.69408 | 10.29171 | 36002 ft | 459 kts | 339° |
| 2026-04-26 06:54 | -1.63512 | 10.26712 | 35996 ft | 459 kts | 339° |
| 2026-04-26 06:54 | -1.57652 | 10.24270 | 35996 ft | 459 kts | 339° |
| 2026-04-26 06:55 | -1.51755 | 10.21813 | 35996 ft | 459 kts | 339° |
| 2026-04-26 06:55 | -1.45824 | 10.19314 | 35992 ft | 459 kts | 339° |
| 2026-04-26 06:56 | -1.39987 | 10.16821 | 35989 ft | 459 kts | 339° |
| 2026-04-26 06:56 | -1.34117 | 10.14314 | 35988 ft | 459 kts | 339° |
| 2026-04-26 06:57 | -1.28245 | 10.11806 | 35986 ft | 459 kts | 339° |
| 2026-04-26 06:57 | -1.22372 | 10.09297 | 35985 ft | 459 kts | 339° |
| 2026-04-26 06:58 | -1.16502 | 10.06791 | 35985 ft | 459 kts | 339° |
| 2026-04-26 06:58 | -1.10623 | 10.04273 | 35985 ft | 460 kts | 339° |
| 2026-04-26 06:59 | -1.04739 | 10.01696 | 35985 ft | 462 kts | 339° |
| 2026-04-26 06:59 | -0.98852 | 9.99114 | 35985 ft | 462 kts | 339° |
| 2026-04-26 07:00 | -0.92962 | 9.96530 | 35984 ft | 462 kts | 339° |
| 2026-04-26 07:00 | -0.87074 | 9.93946 | 35984 ft | 462 kts | 339° |
| 2026-04-26 07:01 | -0.81179 | 9.91361 | 35984 ft | 462 kts | 339° |
| 2026-04-26 07:01 | -0.75284 | 9.88779 | 35984 ft | 463 kts | 339° |
| 2026-04-26 07:02 | -0.69383 | 9.86233 | 35978 ft | 462 kts | 339° |
| 2026-04-26 07:02 | -0.63477 | 9.83699 | 35977 ft | 462 kts | 339° |
| 2026-04-26 07:03 | -0.57589 | 9.81170 | 35981 ft | 459 kts | 339° |
| 2026-04-26 07:03 | -0.51732 | 9.78651 | 35981 ft | 458 kts | 339° |
| 2026-04-26 07:04 | -0.45879 | 9.76134 | 35977 ft | 458 kts | 339° |
| 2026-04-26 07:04 | -0.40025 | 9.73617 | 35979 ft | 458 kts | 339° |
| 2026-04-26 07:05 | -0.34171 | 9.71100 | 35974 ft | 458 kts | 339° |
| 2026-04-26 07:05 | -0.28353 | 9.68600 | 35977 ft | 458 kts | 339° |
| 2026-04-26 07:06 | -0.22496 | 9.66085 | 35974 ft | 458 kts | 339° |
| 2026-04-26 07:06 | -0.16638 | 9.63572 | 35975 ft | 458 kts | 339° |
| 2026-04-26 07:07 | -0.10775 | 9.61057 | 35973 ft | 458 kts | 339° |
| 2026-04-26 07:07 | -0.04912 | 9.58542 | 35973 ft | 458 kts | 339° |
| 2026-04-26 07:08 | 0.00951 | 9.56028 | 35965 ft | 458 kts | 339° |
| 2026-04-26 07:08 | 0.06810 | 9.53514 | 35962 ft | 458 kts | 339° |
| 2026-04-26 07:09 | 0.12670 | 9.50999 | 35963 ft | 458 kts | 339° |
| 2026-04-26 07:09 | 0.18529 | 9.48485 | 35950 ft | 458 kts | 339° |
| 2026-04-26 07:11 | 0.33166 | 9.42230 | 35924 ft | 457 kts | 339° |
| 2026-04-26 07:11 | 0.39007 | 9.39743 | 35915 ft | 453 kts | 339° |
| 2026-04-26 07:11 | 0.41866 | 9.38532 | 35910 ft | 440 kts | 339° |
| 2026-04-26 07:12 | 0.44639 | 9.37355 | 35947 ft | 426 kts | 339° |
| 2026-04-26 07:12 | 0.47319 | 9.36213 | 35945 ft | 412 kts | 339° |
| 2026-04-26 07:12 | 0.49918 | 9.35102 | 35942 ft | 401 kts | 339° |
| 2026-04-26 07:13 | 0.54995 | 9.32926 | 35938 ft | 395 kts | 339° |
| 2026-04-26 07:13 | 0.60043 | 9.30763 | 35935 ft | 394 kts | 339° |
| 2026-04-26 07:14 | 0.65085 | 9.28603 | 35934 ft | 394 kts | 339° |
| 2026-04-26 07:14 | 0.70127 | 9.26443 | 35936 ft | 394 kts | 339° |
| 2026-04-26 07:15 | 0.75170 | 9.24283 | 35935 ft | 394 kts | 339° |
| 2026-04-26 07:15 | 0.80218 | 9.22140 | 35938 ft | 394 kts | 339° |
| 2026-04-26 07:16 | 0.85274 | 9.20003 | 35936 ft | 394 kts | 339° |
| 2026-04-26 07:16 | 0.90330 | 9.17867 | 35936 ft | 395 kts | 339° |
| 2026-04-26 07:17 | 0.95393 | 9.15729 | 35932 ft | 395 kts | 339° |
| 2026-04-26 07:17 | 1.00454 | 9.13592 | 35932 ft | 395 kts | 339° |
| 2026-04-26 07:18 | 1.05514 | 9.11457 | 35935 ft | 395 kts | 339° |
| 2026-04-26 07:18 | 1.10573 | 9.09322 | 35941 ft | 395 kts | 339° |
| 2026-04-26 07:19 | 1.15604 | 9.07214 | 35938 ft | 396 kts | 339° |
| 2026-04-26 07:19 | 1.20697 | 9.05112 | 35941 ft | 396 kts | 339° |
| 2026-04-26 07:20 | 1.25794 | 9.03010 | 35939 ft | 396 kts | 339° |
| 2026-04-26 07:20 | 1.30892 | 9.00909 | 35937 ft | 396 kts | 339° |
| 2026-04-26 07:21 | 1.35985 | 8.98810 | 35941 ft | 395 kts | 339° |
| 2026-04-26 07:21 | 1.41063 | 8.96717 | 35939 ft | 395 kts | 339° |
| 2026-04-26 07:22 | 1.46141 | 8.94624 | 35938 ft | 395 kts | 339° |
| 2026-04-26 07:22 | 1.51220 | 8.92531 | 35940 ft | 395 kts | 339° |
| 2026-04-26 07:23 | 1.56308 | 8.90462 | 35937 ft | 395 kts | 339° |
| 2026-04-26 07:23 | 1.61398 | 8.88396 | 35939 ft | 395 kts | 339° |
| 2026-04-26 07:24 | 1.66486 | 8.86333 | 35939 ft | 395 kts | 339° |
| 2026-04-26 07:24 | 1.71573 | 8.84269 | 35940 ft | 395 kts | 339° |
| 2026-04-26 07:25 | 1.76661 | 8.82205 | 35935 ft | 395 kts | 339° |
| 2026-04-26 07:25 | 1.81751 | 8.80141 | 35933 ft | 395 kts | 339° |
| 2026-04-26 07:26 | 1.86838 | 8.78077 | 35939 ft | 395 kts | 339° |
| 2026-04-26 07:26 | 1.91931 | 8.76017 | 35938 ft | 396 kts | 339° |
| 2026-04-26 07:27 | 1.97040 | 8.73958 | 35940 ft | 396 kts | 339° |
| 2026-04-26 07:27 | 2.02120 | 8.71912 | 35938 ft | 396 kts | 339° |
| 2026-04-26 07:28 | 2.07224 | 8.69844 | 35941 ft | 396 kts | 339° |
| 2026-04-26 07:28 | 2.12320 | 8.67772 | 35941 ft | 396 kts | 339° |
| 2026-04-26 07:29 | 2.17419 | 8.65700 | 35940 ft | 396 kts | 339° |
| 2026-04-26 07:29 | 2.22518 | 8.63629 | 35937 ft | 395 kts | 339° |
| 2026-04-26 07:30 | 2.27619 | 8.61559 | 35937 ft | 396 kts | 339° |
| 2026-04-26 07:30 | 2.31882 | 8.59842 | 35938 ft | 398 kts | 339° |
| 2026-04-26 07:31 | 2.37026 | 8.57772 | 35937 ft | 398 kts | 339° |
| 2026-04-26 07:31 | 2.42169 | 8.55705 | 35935 ft | 398 kts | 339° |
| 2026-04-26 07:32 | 2.47318 | 8.53637 | 35936 ft | 398 kts | 339° |
| 2026-04-26 07:32 | 2.52462 | 8.51570 | 35934 ft | 398 kts | 339° |
| 2026-04-26 07:33 | 2.57605 | 8.49504 | 35934 ft | 398 kts | 339° |
| 2026-04-26 07:33 | 2.62750 | 8.47436 | 35937 ft | 398 kts | 339° |
| 2026-04-26 07:34 | 2.67908 | 8.45373 | 35935 ft | 400 kts | 339° |
| 2026-04-26 07:34 | 2.73078 | 8.43317 | 35935 ft | 400 kts | 339° |
| 2026-04-26 07:35 | 2.78250 | 8.41262 | 35932 ft | 400 kts | 339° |
| 2026-04-26 07:35 | 2.83427 | 8.39207 | 35936 ft | 400 kts | 339° |
| 2026-04-26 07:36 | 2.88602 | 8.37153 | 35932 ft | 400 kts | 339° |
| 2026-04-26 07:36 | 2.93742 | 8.35112 | 35934 ft | 400 kts | 339° |
| 2026-04-26 07:37 | 2.98908 | 8.33062 | 35930 ft | 398 kts | 339° |
| 2026-04-26 07:37 | 3.04049 | 8.31021 | 35926 ft | 396 kts | 339° |
| 2026-04-26 07:38 | 3.09196 | 8.28976 | 35922 ft | 394 kts | 339° |
| 2026-04-26 07:38 | 3.14254 | 8.26965 | 35924 ft | 394 kts | 339° |
| 2026-04-26 07:39 | 3.19345 | 8.24941 | 35925 ft | 394 kts | 339° |
| 2026-04-26 07:39 | 3.24435 | 8.22918 | 35923 ft | 394 kts | 339° |
| 2026-04-26 07:40 | 3.29530 | 8.20895 | 35929 ft | 394 kts | 339° |
| 2026-04-26 07:40 | 3.34619 | 8.18874 | 35922 ft | 394 kts | 339° |
| 2026-04-26 07:41 | 3.39716 | 8.16851 | 35925 ft | 394 kts | 339° |
| 2026-04-26 07:41 | 3.44808 | 8.14830 | 35922 ft | 394 kts | 339° |
| 2026-04-26 07:42 | 3.49900 | 8.12809 | 35925 ft | 394 kts | 339° |
| 2026-04-26 07:42 | 3.54996 | 8.10787 | 35924 ft | 394 kts | 339° |
| 2026-04-26 07:43 | 3.60089 | 8.08767 | 35917 ft | 394 kts | 339° |
| 2026-04-26 07:43 | 3.65188 | 8.06743 | 35918 ft | 394 kts | 339° |
| 2026-04-26 07:44 | 3.70280 | 8.04722 | 35924 ft | 394 kts | 339° |
| 2026-04-26 07:44 | 3.75342 | 8.02713 | 35923 ft | 394 kts | 339° |
| 2026-04-26 07:45 | 3.80437 | 8.00715 | 35920 ft | 393 kts | 339° |
| 2026-04-26 07:45 | 3.85529 | 7.98745 | 35921 ft | 392 kts | 339° |
| 2026-04-26 07:46 | 3.90621 | 7.96776 | 35921 ft | 392 kts | 339° |
| 2026-04-26 07:46 | 3.95714 | 7.94813 | 35924 ft | 392 kts | 339° |
| 2026-04-26 07:47 | 4.00811 | 7.92850 | 35924 ft | 392 kts | 339° |
| 2026-04-26 07:47 | 4.05907 | 7.90886 | 35919 ft | 392 kts | 339° |
| 2026-04-26 07:48 | 4.11003 | 7.88923 | 35919 ft | 392 kts | 339° |
| 2026-04-26 07:48 | 4.16103 | 7.86958 | 35919 ft | 393 kts | 339° |
| 2026-04-26 07:49 | 4.21210 | 7.84982 | 35923 ft | 393 kts | 340° |
| 2026-04-26 07:49 | 4.26309 | 7.83016 | 35920 ft | 393 kts | 339° |
| 2026-04-26 07:50 | 4.33962 | 7.80061 | 35913 ft | 393 kts | 339° |
| 2026-04-26 07:50 | 4.39069 | 7.78092 | 35915 ft | 393 kts | 339° |
| 2026-04-26 07:51 | 4.44175 | 7.76119 | 35920 ft | 393 kts | 339° |
| 2026-04-26 07:51 | 4.49272 | 7.74139 | 35910 ft | 393 kts | 336° |
| 2026-04-26 07:52 | 4.51593 | 7.72705 | 35919 ft | 393 kts | 318° |
| 2026-04-26 07:52 | 4.53402 | 7.70647 | 35632 ft | 394 kts | 299° |
| 2026-04-26 07:52 | 4.54443 | 7.68150 | 35544 ft | 388 kts | 282° |
| 2026-04-26 07:52 | 4.54696 | 7.65471 | 35473 ft | 387 kts | 264° |
| 2026-04-26 07:53 | 4.54141 | 7.62850 | 35655 ft | 385 kts | 247° |
| 2026-04-26 07:53 | 4.52879 | 7.60537 | 35876 ft | 385 kts | 230° |
| 2026-04-26 07:53 | 4.50958 | 7.58669 | 35969 ft | 388 kts | 212° |
| 2026-04-26 07:53 | 4.48535 | 7.57494 | 35985 ft | 389 kts | 193° |
| 2026-04-26 07:54 | 4.45858 | 7.57145 | 35984 ft | 389 kts | 175° |
| 2026-04-26 07:54 | 4.43213 | 7.57641 | 35987 ft | 388 kts | 159° |
| 2026-04-26 07:54 | 4.38155 | 7.59581 | 35981 ft | 390 kts | 158° |
| 2026-04-26 07:55 | 4.33096 | 7.61535 | 35989 ft | 390 kts | 158° |
| 2026-04-26 07:55 | 4.28034 | 7.63486 | 35989 ft | 390 kts | 158° |
| 2026-04-26 07:56 | 4.22981 | 7.65425 | 35986 ft | 388 kts | 158° |
| 2026-04-26 07:56 | 4.17938 | 7.67365 | 35986 ft | 388 kts | 158° |
| 2026-04-26 07:57 | 4.12928 | 7.69289 | 35986 ft | 389 kts | 158° |
| 2026-04-26 07:57 | 4.07876 | 7.71232 | 35986 ft | 389 kts | 158° |
| 2026-04-26 07:58 | 4.02826 | 7.73177 | 35989 ft | 389 kts | 158° |
| 2026-04-26 07:58 | 3.97768 | 7.75119 | 35989 ft | 389 kts | 158° |
| 2026-04-26 07:59 | 3.92719 | 7.77063 | 35989 ft | 389 kts | 158° |
| 2026-04-26 07:59 | 3.87667 | 7.79008 | 35989 ft | 389 kts | 158° |
| 2026-04-26 08:00 | 3.82604 | 7.80953 | 35584 ft | 396 kts | 158° |
| 2026-04-26 08:00 | 3.80026 | 7.81940 | 35221 ft | 393 kts | 158° |
| 2026-04-26 08:00 | 3.77496 | 7.82908 | 35146 ft | 386 kts | 158° |
| 2026-04-26 08:01 | 3.72506 | 7.84825 | 34987 ft | 383 kts | 158° |
| 2026-04-26 08:01 | 3.67540 | 7.86732 | 34831 ft | 382 kts | 158° |
| 2026-04-26 08:02 | 3.62583 | 7.88639 | 34672 ft | 381 kts | 158° |
| 2026-04-26 08:02 | 3.57637 | 7.90541 | 34521 ft | 380 kts | 158° |
| 2026-04-26 08:03 | 3.52698 | 7.92438 | 34370 ft | 380 kts | 158° |
| 2026-04-26 08:03 | 3.50270 | 7.93367 | 34155 ft | 377 kts | 158° |
| 2026-04-26 08:03 | 3.47827 | 7.94301 | 33846 ft | 375 kts | 158° |
| 2026-04-26 08:04 | 3.45400 | 7.95231 | 33502 ft | 372 kts | 158° |
| 2026-04-26 08:04 | 3.42986 | 7.96157 | 33169 ft | 370 kts | 158° |
| 2026-04-26 08:04 | 3.40593 | 7.97075 | 32844 ft | 367 kts | 158° |
| 2026-04-26 08:04 | 3.38213 | 7.97991 | 32505 ft | 365 kts | 158° |
| 2026-04-26 08:05 | 3.35851 | 7.98900 | 32182 ft | 363 kts | 158° |
| 2026-04-26 08:05 | 3.33503 | 7.99803 | 31854 ft | 360 kts | 158° |
| 2026-04-26 08:05 | 3.31169 | 8.00699 | 31516 ft | 358 kts | 158° |
| 2026-04-26 08:05 | 3.28847 | 8.01589 | 31192 ft | 356 kts | 158° |
| 2026-04-26 08:06 | 3.26543 | 8.02475 | 30873 ft | 354 kts | 158° |
| 2026-04-26 08:06 | 3.24254 | 8.03356 | 30559 ft | 351 kts | 158° |
| 2026-04-26 08:06 | 3.21971 | 8.04234 | 30338 ft | 351 kts | 158° |
| 2026-04-26 08:06 | 3.19697 | 8.05106 | 30106 ft | 349 kts | 158° |
| 2026-04-26 08:07 | 3.17430 | 8.05975 | 29844 ft | 348 kts | 158° |
| 2026-04-26 08:07 | 3.15171 | 8.06839 | 29578 ft | 347 kts | 158° |
| 2026-04-26 08:07 | 3.12924 | 8.07697 | 29313 ft | 344 kts | 158° |
| 2026-04-26 08:07 | 3.10693 | 8.08551 | 29051 ft | 342 kts | 158° |
| 2026-04-26 08:08 | 3.08477 | 8.09401 | 28791 ft | 340 kts | 158° |
| 2026-04-26 08:08 | 3.06274 | 8.10247 | 28533 ft | 338 kts | 158° |
| 2026-04-26 08:08 | 3.04083 | 8.11089 | 28277 ft | 336 kts | 158° |
| 2026-04-26 08:08 | 3.01907 | 8.11925 | 28039 ft | 334 kts | 158° |
| 2026-04-26 08:09 | 2.99740 | 8.12757 | 27749 ft | 333 kts | 158° |
| 2026-04-26 08:09 | 2.97606 | 8.13576 | 27362 ft | 334 kts | 158° |
| 2026-04-26 08:09 | 2.95435 | 8.14411 | 26997 ft | 333 kts | 158° |
| 2026-04-26 08:09 | 2.93278 | 8.15238 | 26689 ft | 331 kts | 158° |
| 2026-04-26 08:10 | 2.91136 | 8.16060 | 26376 ft | 329 kts | 158° |
| 2026-04-26 08:10 | 2.89008 | 8.16876 | 26071 ft | 327 kts | 158° |
| 2026-04-26 08:10 | 2.86893 | 8.17689 | 25773 ft | 325 kts | 158° |
| 2026-04-26 08:10 | 2.84788 | 8.18497 | 25474 ft | 323 kts | 158° |
| 2026-04-26 08:11 | 2.82695 | 8.19299 | 25173 ft | 321 kts | 158° |
| 2026-04-26 08:11 | 2.80613 | 8.20095 | 24884 ft | 320 kts | 158° |
| 2026-04-26 08:11 | 2.78541 | 8.20888 | 24595 ft | 318 kts | 159° |
| 2026-04-26 08:11 | 2.76477 | 8.21679 | 24308 ft | 317 kts | 159° |
| 2026-04-26 08:12 | 2.74426 | 8.22465 | 24022 ft | 315 kts | 159° |
| 2026-04-26 08:12 | 2.72381 | 8.23251 | 23746 ft | 314 kts | 158° |
| 2026-04-26 08:12 | 2.70347 | 8.24032 | 23446 ft | 313 kts | 159° |
| 2026-04-26 08:12 | 2.68317 | 8.24810 | 23106 ft | 311 kts | 159° |
| 2026-04-26 08:13 | 2.66299 | 8.25582 | 22783 ft | 310 kts | 159° |
| 2026-04-26 08:13 | 2.64287 | 8.26351 | 22449 ft | 309 kts | 159° |
| 2026-04-26 08:13 | 2.62281 | 8.27118 | 22120 ft | 308 kts | 159° |
| 2026-04-26 08:13 | 2.60284 | 8.27883 | 21796 ft | 307 kts | 159° |
| 2026-04-26 08:14 | 2.58294 | 8.28648 | 21480 ft | 306 kts | 159° |
| 2026-04-26 08:14 | 2.56310 | 8.29410 | 21162 ft | 305 kts | 159° |
| 2026-04-26 08:14 | 2.54330 | 8.30170 | 20849 ft | 304 kts | 159° |
| 2026-04-26 08:14 | 2.52358 | 8.30926 | 20540 ft | 303 kts | 159° |
| 2026-04-26 08:15 | 2.50389 | 8.31681 | 20229 ft | 303 kts | 159° |
| 2026-04-26 08:15 | 2.48426 | 8.32433 | 19925 ft | 302 kts | 159° |
| 2026-04-26 08:15 | 2.46469 | 8.33182 | 19629 ft | 301 kts | 159° |
| 2026-04-26 08:15 | 2.44519 | 8.33929 | 19330 ft | 300 kts | 159° |
| 2026-04-26 08:16 | 2.42573 | 8.34671 | 19039 ft | 299 kts | 159° |
| 2026-04-26 08:16 | 2.40633 | 8.35410 | 18750 ft | 298 kts | 159° |
| 2026-04-26 08:16 | 2.38723 | 8.36140 | 18504 ft | 295 kts | 159° |
| 2026-04-26 08:16 | 2.36876 | 8.36847 | 18914 ft | 278 kts | 159° |
| 2026-04-26 08:17 | 2.35063 | 8.37543 | 19362 ft | 287 kts | 159° |
| 2026-04-26 08:17 | 2.33111 | 8.38291 | 19531 ft | 304 kts | 159° |
| 2026-04-26 08:17 | 2.31108 | 8.39059 | 19887 ft | 312 kts | 159° |
| 2026-04-26 08:17 | 2.29096 | 8.39829 | 19983 ft | 315 kts | 159° |
| 2026-04-26 08:18 | 2.27048 | 8.40612 | 19999 ft | 315 kts | 159° |
| 2026-04-26 08:18 | 2.24997 | 8.41395 | 20010 ft | 315 kts | 159° |
| 2026-04-26 08:18 | 2.23613 | 8.41922 | 20004 ft | 315 kts | 159° |
| 2026-04-26 08:18 | 2.20903 | 8.42960 | 20004 ft | 315 kts | 159° |
| 2026-04-26 08:19 | 2.18860 | 8.43743 | 20004 ft | 314 kts | 159° |
| 2026-04-26 08:19 | 2.16820 | 8.44526 | 20004 ft | 314 kts | 159° |
| 2026-04-26 08:19 | 2.14785 | 8.45310 | 20008 ft | 314 kts | 159° |
| 2026-04-26 08:19 | 2.12742 | 8.46098 | 20008 ft | 320 kts | 159° |
| 2026-04-26 08:20 | 2.11300 | 8.46653 | 20007 ft | 336 kts | 159° |
| 2026-04-26 08:20 | 2.09048 | 8.47518 | 20005 ft | 357 kts | 159° |
| 2026-04-26 08:20 | 2.06660 | 8.48431 | 20005 ft | 378 kts | 159° |
| 2026-04-26 08:20 | 2.04139 | 8.49391 | 20011 ft | 396 kts | 159° |
| 2026-04-26 08:21 | 2.01537 | 8.50386 | 20001 ft | 404 kts | 159° |
| 2026-04-26 08:21 | 1.98901 | 8.51400 | 20004 ft | 407 kts | 159° |
| 2026-04-26 08:21 | 1.96289 | 8.52406 | 20006 ft | 408 kts | 159° |
| 2026-04-26 08:21 | 1.93638 | 8.53424 | 20008 ft | 408 kts | 159° |
| 2026-04-26 08:22 | 1.90994 | 8.54435 | 20008 ft | 408 kts | 159° |
| 2026-04-26 08:22 | 1.88291 | 8.55469 | 20007 ft | 424 kts | 159° |
| 2026-04-26 08:22 | 1.85508 | 8.56533 | 20010 ft | 430 kts | 159° |
| 2026-04-26 08:22 | 1.82711 | 8.57604 | 20007 ft | 432 kts | 159° |
| 2026-04-26 08:23 | 1.79898 | 8.58682 | 20010 ft | 432 kts | 159° |
| 2026-04-26 08:23 | 1.77091 | 8.59757 | 20013 ft | 433 kts | 159° |
| 2026-04-26 08:23 | 1.74278 | 8.60835 | 20013 ft | 433 kts | 159° |
| 2026-04-26 08:23 | 1.71468 | 8.61911 | 20009 ft | 433 kts | 159° |
| 2026-04-26 08:24 | 1.68647 | 8.62992 | 20006 ft | 433 kts | 159° |
| 2026-04-26 08:24 | 1.65827 | 8.64075 | 20009 ft | 434 kts | 159° |
| 2026-04-26 08:24 | 1.63004 | 8.65154 | 20013 ft | 437 kts | 159° |
| 2026-04-26 08:24 | 1.60125 | 8.66253 | 20015 ft | 449 kts | 159° |
| 2026-04-26 08:25 | 1.57176 | 8.67380 | 20011 ft | 457 kts | 159° |
| 2026-04-26 08:25 | 1.54203 | 8.68521 | 20010 ft | 458 kts | 159° |
| 2026-04-26 08:25 | 1.51232 | 8.69661 | 20009 ft | 457 kts | 159° |
| 2026-04-26 08:25 | 1.48258 | 8.70799 | 20009 ft | 458 kts | 159° |
| 2026-04-26 08:26 | 1.45281 | 8.71936 | 20008 ft | 459 kts | 159° |
| 2026-04-26 08:26 | 1.42292 | 8.73078 | 20010 ft | 460 kts | 159° |
| 2026-04-26 08:26 | 1.39304 | 8.74219 | 20009 ft | 461 kts | 159° |
| 2026-04-26 08:26 | 1.36310 | 8.75365 | 20010 ft | 461 kts | 159° |
| 2026-04-26 08:27 | 1.33315 | 8.76512 | 20014 ft | 461 kts | 159° |
| 2026-04-26 08:27 | 1.30319 | 8.77661 | 20012 ft | 461 kts | 159° |
| 2026-04-26 08:27 | 1.27365 | 8.78793 | 20012 ft | 461 kts | 159° |
| 2026-04-26 08:27 | 1.24368 | 8.79940 | 20015 ft | 461 kts | 159° |
| 2026-04-26 08:28 | 1.21338 | 8.81101 | 20014 ft | 460 kts | 159° |
| 2026-04-26 08:28 | 1.18388 | 8.82232 | 20014 ft | 461 kts | 159° |
| 2026-04-26 08:28 | 1.15393 | 8.83379 | 20006 ft | 461 kts | 159° |
| 2026-04-26 08:28 | 1.12397 | 8.84525 | 19221 ft | 459 kts | 159° |
| 2026-04-26 08:29 | 1.09412 | 8.85664 | 18107 ft | 459 kts | 159° |
| 2026-04-26 08:29 | 1.06441 | 8.86797 | 17069 ft | 454 kts | 159° |
| 2026-04-26 08:29 | 1.03511 | 8.87915 | 16162 ft | 447 kts | 159° |
| 2026-04-26 08:29 | 1.00625 | 8.89017 | 15244 ft | 442 kts | 159° |
| 2026-04-26 08:30 | 0.97765 | 8.90108 | 14386 ft | 437 kts | 159° |
| 2026-04-26 08:30 | 0.94941 | 8.91187 | 13545 ft | 433 kts | 159° |
| 2026-04-26 08:30 | 0.92139 | 8.92263 | 12701 ft | 429 kts | 159° |
| 2026-04-26 08:30 | 0.89368 | 8.93328 | 11918 ft | 425 kts | 159° |
| 2026-04-26 08:31 | 0.86632 | 8.94399 | 11168 ft | 420 kts | 156° |
| 2026-04-26 08:31 | 0.84224 | 8.96002 | 10456 ft | 415 kts | 134° |
| 2026-04-26 08:31 | 0.82600 | 8.98322 | 10137 ft | 406 kts | 118° |
| 2026-04-26 08:31 | 0.81260 | 9.00806 | 9748 ft | 406 kts | 117° |
| 2026-04-26 08:32 | 0.79922 | 9.03299 | 8692 ft | 408 kts | 117° |
| 2026-04-26 08:32 | 0.78598 | 9.05776 | 8152 ft | 398 kts | 117° |
| 2026-04-26 08:32 | 0.77306 | 9.08204 | 7739 ft | 394 kts | 117° |
| 2026-04-26 08:32 | 0.76024 | 9.10614 | 7296 ft | 391 kts | 118° |
| 2026-04-26 08:33 | 0.74753 | 9.13002 | 6874 ft | 387 kts | 117° |
| 2026-04-26 08:33 | 0.73491 | 9.15370 | 6459 ft | 384 kts | 118° |
| 2026-04-26 08:33 | 0.72256 | 9.17687 | 6031 ft | 371 kts | 118° |
| 2026-04-26 08:33 | 0.71066 | 9.19926 | 5633 ft | 358 kts | 117° |
| 2026-04-26 08:34 | 0.69916 | 9.22089 | 5247 ft | 347 kts | 118° |
| 2026-04-26 08:34 | 0.68798 | 9.24188 | 4858 ft | 338 kts | 118° |
| 2026-04-26 08:34 | 0.67705 | 9.26234 | 4490 ft | 330 kts | 118° |
| 2026-04-26 08:34 | 0.66637 | 9.28238 | 4136 ft | 323 kts | 118° |
| 2026-04-26 08:35 | 0.65594 | 9.30202 | 3790 ft | 316 kts | 118° |
| 2026-04-26 08:35 | 0.64429 | 9.31982 | 3448 ft | 297 kts | 137° |
| 2026-04-26 08:35 | 0.62748 | 9.33032 | 3490 ft | 273 kts | 154° |
| 2026-04-26 08:35 | 0.61130 | 9.33832 | 3488 ft | 249 kts | 154° |
| 2026-04-26 08:36 | 0.59593 | 9.34582 | 3012 ft | 245 kts | 154° |
| 2026-04-26 08:36 | 0.58067 | 9.35321 | 2505 ft | 242 kts | 154° |
| 2026-04-26 08:36 | 0.56588 | 9.36036 | 2219 ft | 228 kts | 154° |
| 2026-04-26 08:36 | 0.55235 | 9.36690 | 2102 ft | 204 kts | 154° |
| 2026-04-26 08:37 | 0.54045 | 9.37266 | 2074 ft | 174 kts | 154° |
| 2026-04-26 08:37 | 0.52985 | 9.37781 | 1715 ft | 168 kts | 154° |
| 2026-04-26 08:37 | 0.51980 | 9.38276 | 1375 ft | 154 kts | 153° |
| 2026-04-26 08:37 | 0.51054 | 9.38744 | 1038 ft | 145 kts | 153° |
| 2026-04-26 08:38 | 0.50167 | 9.39184 | 768 ft | 141 kts | 154° |
| 2026-04-26 08:38 | 0.49288 | 9.39613 | 567 ft | 139 kts | 157° |
| 2026-04-26 08:38 | 0.48401 | 9.40003 | 396 ft | 139 kts | 150° |
| 2026-04-26 08:38 | 0.47533 | 9.40443 | 210 ft | 138 kts | 157° |
| 2026-04-26 08:39 | 0.46664 | 9.40837 | 40 ft | 131 kts | 149° |
| 2026-04-26 08:39 | 0.45993 | 9.41168 | 34 ft | 83 kts | 154° |
| 2026-04-26 08:39 | 0.45626 | 9.41345 | 34 ft | 37 kts | 153° |
| 2026-04-26 08:39 | 0.45438 | 9.41418 | 35 ft | 16 kts | 195° |
| 2026-04-26 08:40 | 0.45409 | 9.41369 | 36 ft | 7 kts | 253° |
| 2026-04-26 08:40 | 0.45416 | 9.41323 | 37 ft | 8 kts | 320° |
| 2026-04-26 08:40 | 0.45711 | 9.41098 | 37 ft | 1 kts | 227° |
| 2026-04-26 08:40 | 0.45710 | 9.41096 | 37 ft | 0 kts | 231° |